Time;durP1;ratioP1;P1;durP2;ratioP2;P2;SDS_P1;SDS_P2;PMS_P1;PMS_P2;Temp;Humidity;BMP_temperature;BMP_pressure;BME280_temperature;BME280_humidity;BME280_pressure;Samples;Min_cycle;Max_cycle;Signal;HPM_P1;HPM_P2
2023/12/29 00:01:03;;;;;;;1.20;1.10;;;12.20;95.50;;;;;;5026788;28;20453;-86
2023/12/29 00:06:21;;;;;;;1.23;1.13;;;12.30;95.40;;;;;;5015536;28;20532;-85
2023/12/29 00:08:48;;;;;;;3.67;0.90;;;12.30;95.30;;;;;;5020930;28;20446;-85
2023/12/29 00:11:18;;;;;;;3.03;1.00;;;12.30;95.30;;;;;;5021638;28;20453;-85
2023/12/29 00:13:48;;;;;;;3.33;1.80;;;12.30;95.50;;;;;;5015086;28;20474;-88
2023/12/29 00:16:16;;;;;;;1.27;0.70;;;12.20;95.50;;;;;;5022500;28;20480;-85
2023/12/29 00:18:48;;;;;;;1.80;1.13;;;12.30;95.50;;;;;;5013155;28;20465;-85
2023/12/29 00:21:28;;;;;;;3.17;1.23;;;12.30;95.20;;;;;;5005423;28;20502;-86
2023/12/29 00:24:05;;;;;;;1.57;0.80;;;12.40;95.30;;;;;;5021704;28;20450;-85
2023/12/29 00:26:35;;;;;;;1.10;0.83;;;12.50;95.10;;;;;;5018973;28;20541;-84
2023/12/29 00:29:08;;;;;;;3.53;1.47;;;12.50;94.80;;;;;;5017173;28;20450;-86
2023/12/29 00:31:41;;;;;;;1.90;1.20;;;12.50;94.80;;;;;;5004997;28;20462;-85
2023/12/29 00:34:10;;;;;;;1.90;1.00;;;12.20;95.00;;;;;;5018946;28;20460;-88
2023/12/29 00:36:37;;;;;;;1.23;0.80;;;12.40;94.90;;;;;;5019203;28;20484;-86
2023/12/29 00:39:08;;;;;;;1.00;0.63;;;12.40;94.80;;;;;;5022199;28;20934;-87
2023/12/29 00:41:42;;;;;;;2.23;1.17;;;12.60;94.50;;;;;;5022702;28;20457;-87
2023/12/29 00:44:22;;;;;;;10.83;1.03;;;12.50;94.60;;;;;;5008983;28;20630;-87
2023/12/29 00:46:54;;;;;;;3.30;0.87;;;12.50;94.50;;;;;;4987777;28;20458;-85
2023/12/29 00:49:29;;;;;;;3.80;0.90;;;12.50;94.60;;;;;;5020891;28;20445;-86
2023/12/29 00:52:07;;;;;;;2.30;1.30;;;12.50;94.50;;;;;;5020687;28;22169;-87
2023/12/29 00:54:34;;;;;;;3.60;0.90;;;12.50;94.40;;;;;;5020999;28;20770;-85
2023/12/29 00:57:01;;;;;;;1.30;0.90;;;12.60;94.50;;;;;;5002184;28;20550;-86
2023/12/29 00:59:29;;;;;;;2.23;1.53;;;12.50;94.40;;;;;;5021923;28;20968;-87
2023/12/29 01:02:01;;;;;;;1.60;1.17;;;12.60;94.40;;;;;;5013372;28;20521;-85
2023/12/29 01:04:40;;;;;;;1.30;1.00;;;12.60;94.40;;;;;;5033407;28;20427;-85
2023/12/29 01:07:14;;;;;;;2.97;0.97;;;12.50;94.60;;;;;;5028486;28;20452;-86
2023/12/29 01:09:44;;;;;;;0.73;0.73;;;12.60;94.50;;;;;;5002454;28;20451;-85
2023/12/29 01:12:11;;;;;;;1.70;1.00;;;12.70;94.30;;;;;;5010530;28;20518;-85
2023/12/29 01:14:40;;;;;;;1.87;1.00;;;12.70;94.10;;;;;;5001300;28;20515;-85
2023/12/29 01:17:10;;;;;;;2.23;1.00;;;12.70;94.10;;;;;;5007954;28;20567;-86
2023/12/29 01:19:39;;;;;;;1.30;0.70;;;12.70;94.20;;;;;;4990419;28;20461;-87
2023/12/29 01:22:09;;;;;;;2.20;1.00;;;12.60;94.30;;;;;;5008896;28;20508;-89
2023/12/29 01:24:43;;;;;;;5.57;1.30;;;12.60;94.30;;;;;;5019400;28;20473;-84
2023/12/29 01:27:12;;;;;;;2.30;1.10;;;12.60;94.30;;;;;;5013072;28;20538;-87
2023/12/29 01:29:39;;;;;;;3.40;1.10;;;12.50;94.40;;;;;;5002525;28;20452;-85
2023/12/29 01:32:10;;;;;;;2.53;1.20;;;12.50;94.50;;;;;;4991208;28;20527;-85
2023/12/29 01:34:40;;;;;;;2.20;1.00;;;12.50;94.50;;;;;;4992808;28;20541;-85
2023/12/29 01:37:10;;;;;;;1.67;1.57;;;12.60;94.60;;;;;;4990642;28;21133;-87
2023/12/29 01:39:42;;;;;;;6.63;1.40;;;12.50;94.60;;;;;;5001583;28;20456;-85
2023/12/29 01:42:12;;;;;;;4.63;1.47;;;12.50;94.60;;;;;;4991087;28;20519;-85
2023/12/29 01:44:56;;;;;;;3.90;1.90;;;12.50;94.70;;;;;;4989928;28;20476;-85
2023/12/29 01:47:26;;;;;;;2.60;0.90;;;12.50;94.70;;;;;;4997171;28;20467;-86
2023/12/29 01:49:55;;;;;;;2.23;1.00;;;12.50;94.70;;;;;;4999901;28;22024;-86
2023/12/29 01:52:24;;;;;;;5.10;1.57;;;12.50;94.70;;;;;;5013269;28;20500;-85
2023/12/29 01:54:54;;;;;;;4.57;1.43;;;12.50;94.80;;;;;;5012518;28;20488;-86
2023/12/29 01:57:27;;;;;;;2.20;1.10;;;12.50;94.70;;;;;;5011083;28;20535;-86
2023/12/29 01:59:58;;;;;;;4.00;1.10;;;12.40;94.90;;;;;;4997386;28;20838;-85
2023/12/29 02:02:25;;;;;;;4.17;1.30;;;12.50;94.80;;;;;;5013340;28;20534;-87
2023/12/29 02:04:58;;;;;;;4.13;1.30;;;12.60;94.80;;;;;;4998457;28;20926;-85
2023/12/29 02:07:36;;;;;;;4.23;1.30;;;12.40;94.70;;;;;;4995311;28;20460;-83
2023/12/29 02:10:13;;;;;;;3.70;1.57;;;12.60;95.10;;;;;;5011308;28;20454;-84
2023/12/29 02:12:57;;;;;;;2.00;1.07;;;12.60;94.90;;;;;;4994960;28;20516;-84
2023/12/29 02:15:35;;;;;;;2.37;1.20;;;12.60;94.80;;;;;;5008358;28;20485;-84
2023/12/29 02:18:07;;;;;;;2.10;1.00;;;12.60;94.80;;;;;;4995231;28;20460;-85
2023/12/29 02:21:07;;;;;;;5.50;1.23;;;12.50;94.80;;;;;;5001965;28;20512;-84
2023/12/29 02:23:37;;;;;;;2.23;0.90;;;12.70;94.90;;;;;;5007214;28;20470;-85
2023/12/29 02:26:20;;;;;;;4.90;1.60;;;12.80;94.60;;;;;;5022035;28;20516;-86
2023/12/29 02:29:05;;;;;;;3.93;1.10;;;12.70;94.70;;;;;;5007260;28;20446;-83
2023/12/29 02:31:43;;;;;;;2.50;1.10;;;12.70;94.80;;;;;;5002778;28;20515;-84
2023/12/29 02:34:12;;;;;;;4.80;1.60;;;12.70;94.80;;;;;;4999319;28;20835;-86
2023/12/29 02:36:45;;;;;;;5.70;1.27;;;12.70;94.70;;;;;;4994478;28;20593;-84
2023/12/29 02:39:29;;;;;;;4.43;1.20;;;12.70;94.80;;;;;;5010201;28;21105;-86
2023/12/29 02:41:56;;;;;;;3.00;1.03;;;12.50;94.70;;;;;;5012496;28;20458;-85
2023/12/29 02:44:39;;;;;;;3.90;1.10;;;12.40;95.00;;;;;;4995523;28;20480;-83
2023/12/29 02:47:19;;;;;;;4.90;1.40;;;12.60;95.10;;;;;;5009721;28;20489;-85
2023/12/29 02:50:00;;;;;;;4.13;1.03;;;12.70;94.80;;;;;;4998007;28;20438;-86
2023/12/29 02:52:31;;;;;;;2.20;1.03;;;12.40;94.90;;;;;;5016841;28;20471;-83
2023/12/29 02:55:29;;;;;;;1.53;1.00;;;12.30;95.20;;;;;;5013719;28;20571;-85
2023/12/29 02:58:20;;;;;;;1.90;1.20;;;12.20;95.40;;;;;;4994940;28;20459;-85
2023/12/29 03:01:09;;;;;;;2.40;1.20;;;12.60;95.50;;;;;;4998034;28;20406;-84
2023/12/29 03:03:40;;;;;;;4.80;1.30;;;12.80;94.70;;;;;;4999363;28;21430;-84
2023/12/29 03:06:11;;;;;;;2.20;1.00;;;12.60;94.90;;;;;;5017846;28;20548;-85
2023/12/29 03:08:38;;;;;;;3.87;1.37;;;12.80;95.10;;;;;;5001810;28;20478;-85
2023/12/29 03:11:10;;;;;;;2.30;1.00;;;12.50;95.00;;;;;;5014798;28;20458;-87
2023/12/29 03:13:45;;;;;;;3.33;1.23;;;12.40;95.30;;;;;;5019350;28;20940;-85
2023/12/29 03:16:21;;;;;;;4.20;1.60;;;12.50;95.20;;;;;;4997428;28;20486;-85
2023/12/29 03:18:52;;;;;;;3.20;1.03;;;12.40;95.40;;;;;;5013197;28;20476;-85
2023/12/29 03:21:26;;;;;;;2.73;1.17;;;12.50;95.10;;;;;;4996469;28;20526;-84
2023/12/29 03:23:57;;;;;;;2.87;0.90;;;12.70;95.00;;;;;;5010554;28;20447;-84
2023/12/29 03:26:30;;;;;;;4.03;1.97;;;12.60;95.20;;;;;;5014072;28;20475;-86
2023/12/29 03:29:12;;;;;;;3.90;1.37;;;12.60;95.30;;;;;;5005821;28;20450;-86
2023/12/29 03:31:42;;;;;;;1.60;1.00;;;12.70;95.10;;;;;;5013585;28;20460;-86
2023/12/29 03:34:10;;;;;;;5.53;1.10;;;12.80;95.20;;;;;;4994433;28;20458;-85
2023/12/29 03:36:46;;;;;;;3.73;1.20;;;12.80;95.10;;;;;;5010595;28;20591;-85
2023/12/29 03:39:19;;;;;;;2.10;0.93;;;12.60;95.20;;;;;;4999170;28;20490;-85
2023/12/29 03:41:52;;;;;;;2.47;0.97;;;12.50;95.60;;;;;;5012264;28;20467;-86
2023/12/29 03:44:24;;;;;;;2.33;1.30;;;12.60;95.60;;;;;;5002501;28;21089;-84
2023/12/29 03:46:59;;;;;;;4.73;1.33;;;12.50;95.70;;;;;;5000267;28;20490;-84
2023/12/29 03:49:27;;;;;;;6.47;0.90;;;12.50;95.90;;;;;;5000107;28;20461;-85
2023/12/29 03:52:02;;;;;;;2.10;0.80;;;12.40;95.80;;;;;;5003916;28;20516;-84
2023/12/29 03:54:36;;;;;;;1.27;0.93;;;12.40;96.00;;;;;;5006408;28;20458;-87
2023/12/29 03:57:17;;;;;;;2.60;1.00;;;12.50;96.10;;;;;;5003578;28;20506;-82
2023/12/29 03:59:46;;;;;;;3.90;1.13;;;12.70;95.80;;;;;;5003437;28;20542;-84
2023/12/29 04:02:19;;;;;;;1.53;0.90;;;12.40;96.00;;;;;;5015706;28;20443;-85
2023/12/29 04:04:51;;;;;;;4.93;1.10;;;12.50;96.00;;;;;;5009545;28;20506;-85
2023/12/29 04:07:24;;;;;;;2.30;1.17;;;12.60;95.80;;;;;;5007733;28;20461;-86
2023/12/29 04:09:57;;;;;;;2.70;1.00;;;12.40;95.90;;;;;;5024653;28;20450;-83
2023/12/29 04:12:26;;;;;;;2.60;1.00;;;12.30;96.10;;;;;;5018100;28;20565;-86
2023/12/29 04:15:00;;;;;;;4.20;1.30;;;12.70;96.00;;;;;;4999009;28;20591;-86
2023/12/29 04:17:27;;;;;;;3.43;0.97;;;12.70;95.80;;;;;;4995793;28;21805;-86
2023/12/29 04:19:57;;;;;;;3.37;0.90;;;12.50;95.90;;;;;;5011243;28;20469;-85
2023/12/29 04:22:27;;;;;;;1.07;0.90;;;12.60;95.90;;;;;;5012473;28;20542;-84
2023/12/29 04:25:02;;;;;;;2.17;1.03;;;12.70;95.90;;;;;;5016552;28;20501;-86
2023/12/29 04:27:29;;;;;;;3.53;0.97;;;12.50;96.00;;;;;;5008029;28;20462;-86
2023/12/29 04:30:06;;;;;;;3.87;0.93;;;12.70;96.00;;;;;;5010921;28;20446;-85
2023/12/29 04:32:34;;;;;;;3.20;0.87;;;12.70;95.50;;;;;;5027338;28;20442;-86
2023/12/29 04:35:05;;;;;;;3.30;1.20;;;13.00;95.60;;;;;;5021208;28;20573;-86
2023/12/29 04:37:35;;;;;;;4.03;1.30;;;12.80;95.40;;;;;;5010223;28;20497;-87
2023/12/29 04:40:14;;;;;;;5.77;1.10;;;12.50;95.80;;;;;;4993504;28;20450;-84
2023/12/29 04:42:51;;;;;;;4.27;1.10;;;12.50;96.10;;;;;;5010278;28;21242;-86
2023/12/29 04:45:18;;;;;;;4.83;0.83;;;12.40;96.10;;;;;;5006862;28;20947;-85
2023/12/29 04:48:03;;;;;;;13.60;1.93;;;12.80;96.10;;;;;;5006900;28;20525;-87
2023/12/29 04:50:45;;;;;;;2.23;1.47;;;12.80;95.60;;;;;;4990390;28;20565;-86
2023/12/29 04:53:14;;;;;;;6.37;1.00;;;12.60;96.00;;;;;;5005413;28;20472;-86
2023/12/29 04:55:50;;;;;;;6.53;1.30;;;12.50;96.10;;;;;;5005857;28;20483;-86
2023/12/29 04:58:23;;;;;;;3.80;0.80;;;12.50;96.30;;;;;;5007200;28;20453;-85
2023/12/29 05:00:59;;;;;;;5.07;1.40;;;12.50;96.40;;;;;;4991568;28;20460;-87
2023/12/29 05:03:37;;;;;;;2.90;1.30;;;12.40;96.50;;;;;;5006336;28;20542;-84
2023/12/29 05:06:05;;;;;;;3.30;0.90;;;12.40;96.70;;;;;;5005324;28;20589;-86
2023/12/29 05:08:36;;;;;;;2.23;0.60;;;12.40;96.70;;;;;;5010355;28;20472;-87
2023/12/29 05:11:08;;;;;;;5.23;1.80;;;12.40;96.80;;;;;;5004619;28;20466;-85
2023/12/29 05:13:37;;;;;;;4.00;1.07;;;12.50;96.80;;;;;;4991171;28;20468;-85
2023/12/29 05:16:07;;;;;;;1.27;1.00;;;12.70;96.50;;;;;;4990936;28;20538;-83
2023/12/29 05:18:44;;;;;;;4.40;2.03;;;12.80;96.20;;;;;;4990002;28;20493;-85
2023/12/29 05:21:23;;;;;;;2.50;0.83;;;12.70;96.20;;;;;;5000506;28;20455;-85
2023/12/29 05:23:57;;;;;;;2.87;0.93;;;12.50;96.30;;;;;;5008943;28;20480;-86
2023/12/29 05:26:34;;;;;;;3.90;1.00;;;12.50;96.50;;;;;;5008586;28;20513;-85
2023/12/29 05:29:11;;;;;;;2.93;0.93;;;12.50;96.60;;;;;;5014146;28;20456;-85
2023/12/29 05:31:43;;;;;;;1.40;0.87;;;12.40;96.50;;;;;;5020131;28;20464;-86
2023/12/29 05:34:12;;;;;;;4.57;0.93;;;12.30;96.40;;;;;;5006218;28;20587;-84
2023/12/29 05:37:00;;;;;;;8.60;1.23;;;12.40;96.40;;;;;;5004249;28;20505;-84
2023/12/29 05:39:35;;;;;;;2.27;0.93;;;12.30;96.40;;;;;;5008323;28;20485;-84
2023/12/29 05:42:02;;;;;;;1.97;0.90;;;12.70;96.20;;;;;;4989297;28;20537;-84
2023/12/29 05:44:41;;;;;;;6.40;1.50;;;12.50;96.00;;;;;;4998566;28;20484;-84
2023/12/29 05:47:23;;;;;;;2.63;0.80;;;12.40;96.20;;;;;;5009691;28;20457;-86
2023/12/29 05:49:56;;;;;;;1.03;0.80;;;12.30;96.30;;;;;;5021376;28;20480;-85
2023/12/29 05:52:29;;;;;;;2.13;0.90;;;12.40;96.30;;;;;;5041276;28;20437;-85
2023/12/29 05:55:00;;;;;;;2.63;0.87;;;12.30;96.40;;;;;;5041230;28;20480;-86
2023/12/29 05:57:37;;;;;;;5.70;0.90;;;12.20;96.40;;;;;;5029040;28;20493;-84
2023/12/29 06:00:15;;;;;;;4.20;0.90;;;12.20;96.50;;;;;;5038674;28;20461;-85
2023/12/29 06:03:04;;;;;;;2.60;0.80;;;12.50;96.00;;;;;;5020622;28;20441;-85
2023/12/29 06:05:34;;;;;;;2.63;0.97;;;12.40;95.80;;;;;;4999926;28;20552;-86
2023/12/29 06:08:08;;;;;;;2.60;1.67;;;12.20;96.20;;;;;;5019387;28;21140;-85
2023/12/29 06:10:37;;;;;;;1.23;1.03;;;12.30;96.70;;;;;;5017709;28;20462;-85
2023/12/29 06:13:09;;;;;;;2.53;1.20;;;12.20;96.40;;;;;;5018851;28;20533;-84
2023/12/29 06:15:41;;;;;;;5.43;1.10;;;12.20;96.60;;;;;;5013624;28;20492;-84
2023/12/29 06:18:11;;;;;;;2.17;0.93;;;12.40;96.30;;;;;;4998867;28;20489;-85
2023/12/29 06:20:43;;;;;;;3.20;1.10;;;12.40;96.10;;;;;;5014878;28;20840;-87
2023/12/29 06:23:14;;;;;;;3.70;1.70;;;12.20;96.30;;;;;;4998286;28;20492;-86
2023/12/29 06:28:39;;;;;;;3.43;1.37;;;12.50;95.90;;;;;;5009941;28;20458;-86
2023/12/29 06:31:06;;;;;;;2.00;1.30;;;12.50;95.70;;;;;;5012112;28;20569;-82
2023/12/29 06:33:34;;;;;;;1.53;1.07;;;12.60;95.80;;;;;;5012161;28;20490;-84
2023/12/29 06:36:05;;;;;;;1.23;1.10;;;12.50;95.70;;;;;;4995630;28;20478;-84
2023/12/29 06:38:40;;;;;;;1.10;0.70;;;12.50;95.60;;;;;;5011096;28;20541;-82
2023/12/29 06:41:13;;;;;;;5.03;1.00;;;12.50;95.80;;;;;;5013768;28;20442;-85
2023/12/29 06:43:51;;;;;;;1.67;0.90;;;12.70;95.50;;;;;;5011707;28;20519;-85
2023/12/29 06:46:23;;;;;;;3.63;1.20;;;12.70;95.30;;;;;;4990996;28;20561;-83
2023/12/29 06:49:14;;;;;;;3.60;0.90;;;12.80;95.20;;;;;;5027311;28;20620;-86
2023/12/29 06:51:44;;;;;;;1.90;0.90;;;12.70;95.10;;;;;;5019365;28;20919;-88
2023/12/29 06:54:15;;;;;;;2.53;0.93;;;12.70;95.10;;;;;;5017056;28;20461;-84
2023/12/29 06:56:48;;;;;;;4.57;1.63;;;12.80;95.10;;;;;;5016207;28;20488;-85
2023/12/29 06:59:24;;;;;;;2.53;1.30;;;12.70;95.00;;;;;;4996561;28;20501;-85
2023/12/29 07:01:59;;;;;;;2.00;0.80;;;12.70;95.20;;;;;;5008572;28;20463;-86
2023/12/29 07:04:35;;;;;;;1.10;0.97;;;12.50;95.40;;;;;;4998548;28;22310;-85
2023/12/29 07:07:05;;;;;;;3.07;0.90;;;12.80;95.30;;;;;;5009670;28;20466;-85
2023/12/29 07:09:37;;;;;;;2.27;0.73;;;12.80;94.90;;;;;;5013019;28;20508;-86
2023/12/29 07:12:21;;;;;;;3.57;1.10;;;12.80;95.00;;;;;;5004407;28;20953;-87
2023/12/29 07:14:54;;;;;;;2.23;0.70;;;12.80;94.90;;;;;;4993849;28;20481;-86
2023/12/29 07:17:35;;;;;;;3.10;2.47;;;12.80;94.90;;;;;;5006275;28;20876;-83
2023/12/29 07:20:06;;;;;;;2.00;0.87;;;12.80;94.90;;;;;;5002289;28;20443;-84
2023/12/29 07:22:36;;;;;;;2.93;1.13;;;12.80;94.90;;;;;;5009649;28;20451;-86
2023/12/29 07:25:05;;;;;;;2.00;0.60;;;12.80;95.00;;;;;;5011885;28;20516;-85
2023/12/29 07:27:35;;;;;;;1.83;1.00;;;12.80;95.10;;;;;;5011917;28;20438;-87
2023/12/29 07:30:10;;;;;;;2.50;0.70;;;12.80;95.20;;;;;;4994984;28;20459;-84
2023/12/29 07:32:37;;;;;;;1.90;0.60;;;12.70;95.30;;;;;;5018220;28;20446;-84
2023/12/29 07:35:06;;;;;;;2.73;0.87;;;12.70;95.40;;;;;;5009081;28;20489;-87
2023/12/29 07:37:37;;;;;;;0.73;0.73;;;12.70;95.40;;;;;;4998927;28;20485;-84
2023/12/29 07:40:10;;;;;;;2.73;0.77;;;12.60;95.40;;;;;;5014898;28;20454;-87
2023/12/29 07:42:48;;;;;;;1.00;0.80;;;12.70;95.50;;;;;;4998915;28;20459;-86
2023/12/29 07:45:31;;;;;;;2.93;0.97;;;12.70;95.60;;;;;;4995874;28;20576;-83
2023/12/29 07:48:04;;;;;;;1.20;0.83;;;12.70;95.60;;;;;;5018509;28;20457;-85
2023/12/29 07:50:39;;;;;;;2.03;0.60;;;12.70;95.60;;;;;;5009024;28;20452;-86
2023/12/29 07:53:10;;;;;;;1.43;0.60;;;12.60;95.60;;;;;;5023006;28;21959;-84
2023/12/29 07:55:43;;;;;;;2.80;1.00;;;12.70;95.80;;;;;;5005517;28;20477;-84
2023/12/29 07:58:12;;;;;;;4.03;0.80;;;12.70;95.80;;;;;;5007625;28;20484;-85
2023/12/29 08:00:42;;;;;;;3.37;1.00;;;12.60;96.10;;;;;;5024591;28;20443;-84
2023/12/29 08:03:13;;;;;;;3.20;1.10;;;12.40;96.50;;;;;;5026793;28;21150;-83
2023/12/29 08:05:46;;;;;;;2.53;0.70;;;12.40;97.20;;;;;;5008436;28;20456;-84
2023/12/29 08:08:15;;;;;;;1.63;0.80;;;12.70;97.00;;;;;;5008956;28;20478;-86
2023/12/29 08:10:43;;;;;;;2.00;0.87;;;12.50;97.10;;;;;;5007898;28;20465;-85
2023/12/29 08:13:15;;;;;;;3.97;1.90;;;12.30;97.60;;;;;;5025335;28;20462;-86
2023/12/29 08:15:45;;;;;;;2.73;0.77;;;12.40;98.10;;;;;;5004792;28;20477;-87
2023/12/29 08:18:15;;;;;;;2.83;1.00;;;12.50;97.90;;;;;;5017691;28;21909;-85
2023/12/29 08:20:45;;;;;;;2.67;0.90;;;12.40;98.00;;;;;;4998204;28;20461;-85
2023/12/29 08:23:17;;;;;;;1.60;1.00;;;12.50;98.50;;;;;;5012774;28;20545;-87
2023/12/29 08:25:44;;;;;;;9.13;1.50;;;12.50;98.60;;;;;;4993560;28;20478;-87
2023/12/29 08:28:11;;;;;;;1.20;1.10;;;12.30;98.70;;;;;;4993991;28;20466;-84
2023/12/29 08:30:47;;;;;;;6.33;1.33;;;12.40;99.20;;;;;;4995010;28;20441;-85
2023/12/29 08:33:17;;;;;;;2.87;1.10;;;12.70;99.30;;;;;;5008632;28;21041;-86
2023/12/29 08:35:47;;;;;;;2.57;1.43;;;12.50;99.10;;;;;;4994283;28;20589;-87
2023/12/29 08:38:14;;;;;;;4.30;1.17;;;12.70;99.70;;;;;;5002964;28;20477;-85
2023/12/29 08:40:42;;;;;;;2.93;1.07;;;12.60;99.70;;;;;;5008209;28;20470;-86
2023/12/29 08:43:09;;;;;;;1.40;0.70;;;12.50;99.90;;;;;;5011866;28;20838;-85
2023/12/29 08:45:38;;;;;;;1.43;1.03;;;12.40;99.90;;;;;;4991734;28;20561;-85
2023/12/29 08:48:05;;;;;;;2.50;1.03;;;12.40;99.90;;;;;;5014220;28;20512;-86
2023/12/29 08:50:37;;;;;;;1.90;1.23;;;12.30;99.90;;;;;;4993188;28;20443;-85
2023/12/29 08:53:11;;;;;;;3.40;0.93;;;12.30;99.90;;;;;;5011848;28;20517;-85
2023/12/29 08:55:47;;;;;;;3.70;1.47;;;12.20;99.90;;;;;;5007555;28;20565;-88
2023/12/29 08:58:14;;;;;;;2.00;1.10;;;12.20;99.90;;;;;;5006979;28;20486;-85
2023/12/29 09:00:44;;;;;;;8.33;1.43;;;12.30;99.90;;;;;;4993268;28;20480;-86
2023/12/29 09:03:14;;;;;;;3.67;1.53;;;12.30;99.90;;;;;;4991866;28;20560;-86
2023/12/29 09:05:42;;;;;;;2.13;1.30;;;12.30;99.90;;;;;;4993084;28;20519;-86
2023/12/29 09:08:10;;;;;;;2.23;1.17;;;12.30;99.90;;;;;;4991139;28;20462;-87
2023/12/29 09:10:41;;;;;;;2.77;1.27;;;12.30;99.90;;;;;;5008228;28;20484;-85
2023/12/29 09:13:10;;;;;;;5.40;1.47;;;12.40;99.90;;;;;;5009259;28;20454;-84
2023/12/29 09:15:38;;;;;;;1.30;1.10;;;12.20;99.90;;;;;;4990588;28;21057;-84
2023/12/29 09:18:12;;;;;;;2.27;1.17;;;12.10;99.90;;;;;;4997748;28;20616;-85
2023/12/29 09:20:42;;;;;;;5.90;1.70;;;12.20;99.90;;;;;;5009533;28;20463;-85
2023/12/29 09:23:12;;;;;;;3.63;1.20;;;12.30;99.90;;;;;;5006706;28;20459;-86
2023/12/29 09:25:40;;;;;;;3.30;1.37;;;12.10;99.90;;;;;;5017308;28;20490;-86
2023/12/29 09:28:09;;;;;;;2.17;1.17;;;12.00;99.90;;;;;;5021041;28;20509;-85
2023/12/29 09:30:48;;;;;;;1.97;1.10;;;12.20;99.90;;;;;;5015944;28;20453;-86
2023/12/29 09:33:29;;;;;;;2.10;1.33;;;12.30;99.90;;;;;;5013018;28;20448;-86
2023/12/29 09:36:02;;;;;;;1.90;1.23;;;12.40;99.90;;;;;;5019391;28;20464;-86
2023/12/29 09:38:33;;;;;;;2.40;0.83;;;12.20;99.90;;;;;;5027264;28;21081;-85
2023/12/29 09:41:11;;;;;;;6.27;1.67;;;12.10;99.90;;;;;;5006838;28;20504;-86
2023/12/29 09:43:42;;;;;;;3.17;1.00;;;12.10;99.90;;;;;;5023377;28;20451;-85
2023/12/29 09:46:20;;;;;;;3.30;0.93;;;12.30;99.90;;;;;;5003832;28;20556;-86
2023/12/29 09:48:50;;;;;;;2.30;1.47;;;12.50;99.90;;;;;;4997524;28;20444;-86
2023/12/29 09:51:22;;;;;;;2.70;1.43;;;12.30;99.90;;;;;;5010845;28;20526;-84
2023/12/29 09:53:51;;;;;;;0.87;0.80;;;12.60;99.90;;;;;;5010404;28;20454;-85
2023/12/29 09:56:22;;;;;;;1.47;0.90;;;12.70;99.90;;;;;;5010202;28;20540;-85
2023/12/29 09:59:03;;;;;;;3.20;0.90;;;12.80;99.90;;;;;;5004668;28;20491;-85
2023/12/29 10:01:48;;;;;;;1.63;1.10;;;12.70;99.90;;;;;;4994704;28;20565;-87
2023/12/29 10:04:15;;;;;;;2.47;1.13;;;12.70;99.90;;;;;;5011875;28;20938;-85
2023/12/29 10:06:50;;;;;;;2.27;1.20;;;12.70;99.90;;;;;;5005461;28;21125;-86
2023/12/29 10:09:34;;;;;;;2.23;1.00;;;12.60;99.90;;;;;;5019928;28;20442;-85
2023/12/29 10:12:08;;;;;;;2.40;1.17;;;12.50;99.90;;;;;;5001241;28;20483;-88
2023/12/29 10:14:51;;;;;;;1.43;0.90;;;12.50;99.90;;;;;;4996861;28;20472;-84
2023/12/29 10:18:02;;;;;;;1.27;0.70;;;12.50;99.90;;;;;;5012047;28;20544;-86
2023/12/29 10:20:52;;;;;;;2.73;1.07;;;12.50;99.90;;;;;;4999339;28;22220;-86
2023/12/29 10:23:40;;;;;;;3.50;1.50;;;12.60;99.90;;;;;;5013990;28;21141;-86
2023/12/29 10:26:12;;;;;;;2.67;0.97;;;12.40;99.90;;;;;;4995265;28;20517;-87
2023/12/29 10:28:40;;;;;;;1.50;1.23;;;12.30;99.90;;;;;;4997476;28;20841;-85
2023/12/29 10:31:14;;;;;;;0.87;0.53;;;12.30;99.90;;;;;;4997067;28;20965;-85
2023/12/29 10:33:41;;;;;;;0.73;0.67;;;12.50;99.90;;;;;;4998191;28;20561;-85
2023/12/29 10:36:11;;;;;;;0.70;0.70;;;12.70;99.90;;;;;;5013177;28;20550;-83
2023/12/29 10:38:42;;;;;;;0.73;0.60;;;12.90;99.90;;;;;;5012486;28;20570;-85
2023/12/29 10:41:14;;;;;;;0.60;0.50;;;13.00;99.90;;;;;;4996896;28;21191;-85
2023/12/29 10:43:42;;;;;;;0.80;0.50;;;13.00;99.80;;;;;;4998008;28;20435;-87
2023/12/29 10:46:14;;;;;;;1.33;0.70;;;12.70;99.90;;;;;;5017153;28;20497;-86
2023/12/29 10:48:46;;;;;;;1.70;1.20;;;12.80;99.90;;;;;;5012846;28;20512;-84
2023/12/29 10:51:27;;;;;;;1.73;0.93;;;12.80;99.90;;;;;;5013924;28;20538;-85
2023/12/29 10:53:59;;;;;;;0.80;0.67;;;12.60;99.90;;;;;;4998944;28;20715;-86
2023/12/29 10:56:26;;;;;;;4.00;1.37;;;12.50;99.90;;;;;;5003864;28;20493;-85
2023/12/29 10:59:08;;;;;;;2.40;0.80;;;12.80;99.90;;;;;;5020699;28;20565;-87
2023/12/29 11:01:36;;;;;;;0.80;0.40;;;12.80;99.90;;;;;;5024575;28;20430;-87
2023/12/29 11:04:09;;;;;;;1.83;0.73;;;12.70;99.90;;;;;;5006940;28;20442;-86
2023/12/29 11:06:48;;;;;;;1.07;0.97;;;12.50;99.90;;;;;;5005252;28;20521;-86
2023/12/29 11:09:31;;;;;;;0.70;0.50;;;12.50;99.90;;;;;;5003397;28;20446;-86
2023/12/29 11:12:04;;;;;;;0.60;0.60;;;12.80;99.90;;;;;;5022931;28;20498;-86
2023/12/29 11:14:37;;;;;;;1.00;0.50;;;12.80;99.90;;;;;;5004456;28;21315;-87
2023/12/29 11:17:06;;;;;;;0.40;0.40;;;12.70;99.90;;;;;;5013866;28;21000;-85
2023/12/29 11:19:36;;;;;;;0.50;0.40;;;13.00;99.80;;;;;;5011077;28;20506;-83
2023/12/29 11:22:04;;;;;;;0.53;0.53;;;12.80;99.80;;;;;;5008122;28;20459;-85
2023/12/29 11:24:31;;;;;;;0.87;0.53;;;12.90;99.70;;;;;;4999248;28;20466;-86
2023/12/29 11:27:06;;;;;;;1.40;0.40;;;13.10;99.80;;;;;;4999484;28;20466;-86
2023/12/29 11:29:39;;;;;;;1.13;0.70;;;13.20;99.30;;;;;;5016476;28;20466;-86
2023/12/29 11:32:15;;;;;;;0.80;0.50;;;13.20;99.30;;;;;;5027349;28;20439;-84
2023/12/29 11:34:55;;;;;;;0.60;0.60;;;13.40;99.30;;;;;;5019709;28;20529;-85
2023/12/29 11:38:00;;;;;;;0.73;0.73;;;13.50;98.60;;;;;;5017903;28;20562;-86
2023/12/29 11:40:36;;;;;;;0.97;0.57;;;13.40;98.40;;;;;;5018101;28;20509;-86
2023/12/29 11:43:11;;;;;;;2.20;0.40;;;13.40;98.70;;;;;;5005788;28;20450;-84
2023/12/29 11:45:39;;;;;;;1.00;0.80;;;13.40;98.40;;;;;;4985184;28;20492;-86
2023/12/29 11:48:06;;;;;;;0.50;0.50;;;13.20;98.80;;;;;;5023937;28;20462;-86
2023/12/29 11:50:39;;;;;;;0.40;0.40;;;13.00;99.10;;;;;;5026280;28;20437;-87
2023/12/29 11:53:10;;;;;;;0.50;0.50;;;13.00;99.30;;;;;;5009217;28;20453;-84
2023/12/29 11:55:44;;;;;;;1.63;0.70;;;13.00;99.40;;;;;;5018849;28;20458;-86
2023/12/29 11:58:29;;;;;;;0.97;0.53;;;13.20;99.60;;;;;;4997233;28;20521;-86
2023/12/29 12:01:01;;;;;;;2.60;0.63;;;13.30;99.30;;;;;;5009147;28;20490;-84
2023/12/29 12:03:35;;;;;;;9.83;6.70;;;13.30;98.90;;;;;;4993943;28;20476;-84
2023/12/29 12:06:08;;;;;;;1.17;0.40;;;13.10;99.00;;;;;;5002619;28;20462;-86
2023/12/29 12:08:37;;;;;;;1.13;0.70;;;13.10;99.60;;;;;;5018128;28;20535;-86
2023/12/29 12:11:43;;;;;;;1.53;0.50;;;13.10;99.00;;;;;;5001846;28;20986;-84
2023/12/29 12:14:10;;;;;;;1.60;0.53;;;13.10;99.00;;;;;;5016495;28;20513;-85
2023/12/29 12:16:52;;;;;;;1.13;0.80;;;13.20;99.10;;;;;;5019283;28;20466;-85
2023/12/29 12:19:24;;;;;;;0.83;0.50;;;13.10;98.90;;;;;;5028835;28;20517;-85
2023/12/29 12:21:57;;;;;;;0.60;0.47;;;13.00;98.80;;;;;;5040624;28;20486;-87
2023/12/29 12:24:28;;;;;;;0.93;0.50;;;13.30;98.30;;;;;;5040885;28;20453;-84
2023/12/29 12:26:55;;;;;;;0.40;0.40;;;13.20;98.40;;;;;;5027513;28;20521;-83
2023/12/29 12:29:26;;;;;;;2.03;0.63;;;13.20;98.70;;;;;;5005549;28;20822;-82
2023/12/29 12:31:57;;;;;;;0.93;0.50;;;13.40;98.60;;;;;;5016315;28;20473;-85
2023/12/29 12:34:39;;;;;;;1.00;0.53;;;13.30;98.30;;;;;;5021676;28;20454;-86
2023/12/29 12:37:09;;;;;;;0.50;0.47;;;13.20;98.60;;;;;;5007032;28;20545;-86
2023/12/29 12:39:43;;;;;;;2.80;0.80;;;13.10;98.80;;;;;;5016978;28;20482;-85
2023/12/29 12:42:13;;;;;;;0.40;0.40;;;13.60;98.50;;;;;;5003109;28;20442;-85
2023/12/29 12:44:46;;;;;;;1.43;0.53;;;13.40;98.10;;;;;;5016009;28;20442;-85
2023/12/29 12:47:18;;;;;;;1.90;0.50;;;13.30;98.30;;;;;;5005487;28;20477;-86
2023/12/29 12:49:46;;;;;;;1.63;0.50;;;13.10;98.50;;;;;;4998723;28;20465;-86
2023/12/29 12:52:13;;;;;;;0.70;0.50;;;13.10;98.80;;;;;;5000236;28;20457;-86
2023/12/29 12:54:40;;;;;;;0.83;0.40;;;13.40;98.50;;;;;;4996908;28;20565;-85
2023/12/29 12:57:13;;;;;;;0.60;0.60;;;13.50;98.30;;;;;;5015410;28;20525;-86
2023/12/29 12:59:48;;;;;;;1.30;0.50;;;13.20;98.50;;;;;;4997321;28;20485;-85
2023/12/29 13:02:24;;;;;;;0.60;0.40;;;13.30;98.70;;;;;;5001767;28;20456;-87
2023/12/29 13:04:54;;;;;;;0.73;0.73;;;13.20;98.70;;;;;;5005647;28;20482;-85
2023/12/29 13:07:29;;;;;;;4.43;3.80;;;13.20;98.60;;;;;;5015992;28;20446;-87
2023/12/29 13:09:59;;;;;;;0.60;0.60;;;13.20;98.60;;;;;;5017652;28;21887;-85
2023/12/29 13:12:34;;;;;;;0.90;0.50;;;13.20;98.50;;;;;;5015668;28;20446;-83
2023/12/29 13:15:08;;;;;;;2.20;0.60;;;13.10;98.60;;;;;;5024457;28;20478;-85
2023/12/29 13:17:49;;;;;;;0.40;0.40;;;13.20;98.80;;;;;;5026222;28;20454;-86
2023/12/29 13:20:17;;;;;;;1.70;1.47;;;13.10;98.60;;;;;;4997681;28;20449;-86
2023/12/29 13:22:53;;;;;;;1.40;0.60;;;13.10;98.60;;;;;;5012969;28;20458;-84
2023/12/29 13:25:24;;;;;;;0.70;0.40;;;13.40;98.20;;;;;;4993984;28;20833;-85